createdAt,value
2018-03-25T00:01:38.837Z,17.05
2018-03-25T00:04:07.762Z,17.00
2018-03-25T00:06:35.873Z,18.63
2018-03-25T00:09:04.018Z,17.25
2018-03-25T00:11:32.151Z,15.73
2018-03-25T00:14:01.171Z,16.90
2018-03-25T00:16:29.369Z,17.90
2018-03-25T00:18:57.496Z,18.10
2018-03-25T00:21:25.649Z,15.98
2018-03-25T00:23:54.678Z,17.92
2018-03-25T00:26:22.798Z,17.10
2018-03-25T00:28:51.006Z,15.52
2018-03-25T00:31:19.889Z,15.82
2018-03-25T00:33:48.189Z,17.67
2018-03-25T00:36:16.363Z,15.70
2018-03-25T00:38:44.500Z,17.70
2018-03-25T00:41:13.393Z,16.83
2018-03-25T00:43:42.305Z,16.48
2018-03-25T00:46:10.441Z,16.48
2018-03-25T00:48:38.654Z,15.15
2018-03-25T00:51:07.528Z,17.37
2018-03-25T00:53:35.721Z,15.60
2018-03-25T00:56:03.851Z,18.30
2018-03-25T00:58:31.982Z,16.98
2018-03-25T01:01:00.116Z,15.23
2018-03-25T01:03:28.299Z,19.85
2018-03-25T01:05:56.437Z,23.23
2018-03-25T01:08:25.368Z,20.52
2018-03-25T01:10:53.465Z,18.85
2018-03-25T01:13:21.603Z,17.23
2018-03-25T01:16:01.733Z,16.58
2018-03-25T01:18:30.617Z,16.73
2018-03-25T01:20:59.612Z,16.10
2018-03-25T01:23:28.503Z,17.27
2018-03-25T01:25:57.397Z,17.92
2018-03-25T01:28:25.559Z,16.58
2018-03-25T01:30:54.469Z,17.50
2018-03-25T01:33:22.596Z,16.23
2018-03-25T01:35:50.718Z,17.40
2018-03-25T01:38:18.842Z,15.85
2018-03-25T01:40:46.961Z,17.95
2018-03-25T01:43:15.101Z,20.00
2018-03-25T01:45:44.033Z,18.83
2018-03-25T01:48:12.194Z,18.10
2018-03-25T01:50:41.564Z,15.05
2018-03-25T01:53:10.484Z,15.15
2018-03-25T01:55:38.593Z,15.93
2018-03-25T01:58:06.808Z,16.52
2018-03-25T02:00:35.822Z,14.95
2018-03-25T02:03:03.933Z,16.87
2018-03-25T02:05:32.073Z,15.00
2018-03-25T02:08:00.297Z,15.30
2018-03-25T02:10:29.227Z,15.63
2018-03-25T02:12:57.355Z,15.90
2018-03-25T02:15:26.288Z,16.30
2018-03-25T02:17:55.184Z,14.85
2018-03-25T02:20:23.285Z,15.70
2018-03-25T02:22:51.510Z,14.30
2018-03-25T02:25:19.614Z,15.65
2018-03-25T02:27:47.729Z,15.52
2018-03-25T02:30:16.699Z,16.05
2018-03-25T02:32:44.842Z,14.85
2018-03-25T02:35:13.086Z,15.00
2018-03-25T02:37:41.205Z,16.73
2018-03-25T02:40:09.350Z,15.13
2018-03-25T02:42:37.473Z,14.98
2018-03-25T02:45:05.751Z,14.65
2018-03-25T02:47:34.697Z,13.43
2018-03-25T02:50:03.082Z,13.85
2018-03-25T02:52:31.184Z,16.77
2018-03-25T02:54:59.373Z,14.02
2018-03-25T02:57:28.296Z,13.65
2018-03-25T02:59:56.462Z,12.57
2018-03-25T03:02:24.634Z,14.30
2018-03-25T03:04:52.741Z,13.93
2018-03-25T03:07:20.885Z,13.07
2018-03-25T03:09:49.126Z,14.02
2018-03-25T03:12:18.109Z,14.00
2018-03-25T03:14:47.098Z,13.93
2018-03-25T03:17:16.084Z,13.43
2018-03-25T03:19:44.961Z,13.85
2018-03-25T03:22:13.903Z,15.37
2018-03-25T03:24:42.101Z,13.38
2018-03-25T03:27:10.310Z,13.43
2018-03-25T03:29:39.202Z,13.82
2018-03-25T03:32:08.219Z,12.88
2018-03-25T03:34:36.401Z,14.27
2018-03-25T03:37:04.514Z,13.47
2018-03-25T03:39:32.648Z,13.57
2018-03-25T03:42:00.771Z,13.65
2018-03-25T03:44:28.908Z,13.75
2018-03-25T03:46:57.068Z,14.05
2018-03-25T03:49:25.185Z,13.18
2018-03-25T03:51:54.080Z,13.20
2018-03-25T03:54:23.009Z,14.10
2018-03-25T03:56:51.998Z,13.57
2018-03-25T03:59:20.114Z,12.73
2018-03-25T04:01:48.256Z,14.18
2018-03-25T04:04:16.422Z,13.40
2018-03-25T04:06:44.588Z,13.37
2018-03-25T04:09:12.709Z,13.35
2018-03-25T04:11:40.930Z,11.35
2018-03-25T04:14:09.821Z,14.15
2018-03-25T04:16:37.929Z,14.00
2018-03-25T04:19:06.141Z,13.40
2018-03-25T04:21:35.228Z,13.00
2018-03-25T04:24:04.153Z,12.82
2018-03-25T04:26:33.108Z,13.02
2018-03-25T04:29:02.045Z,12.63
2018-03-25T04:31:30.165Z,12.93
2018-03-25T04:33:59.157Z,13.98
2018-03-25T04:36:28.086Z,13.80
2018-03-25T04:38:56.253Z,13.57
2018-03-25T04:41:24.393Z,13.18
2018-03-25T04:43:53.287Z,12.55
2018-03-25T04:46:22.176Z,12.25
2018-03-25T04:48:51.067Z,12.32
2018-03-25T04:51:20.045Z,13.43
2018-03-25T04:53:48.972Z,12.63
2018-03-25T04:56:17.086Z,12.82
2018-03-25T04:58:45.204Z,12.88
2018-03-25T05:01:13.341Z,12.88
2018-03-25T05:03:42.235Z,13.45
2018-03-25T05:06:11.157Z,11.43
2018-03-25T05:08:39.320Z,13.15
2018-03-25T05:11:07.822Z,13.70
2018-03-25T05:13:35.952Z,12.10
2018-03-25T05:16:04.849Z,12.88
2018-03-25T05:18:33.757Z,14.10
2018-03-25T05:21:01.917Z,12.88
2018-03-25T05:23:30.113Z,13.10
2018-03-25T05:25:58.255Z,14.57
2018-03-25T05:28:27.233Z,12.45
2018-03-25T05:30:56.401Z,12.23
2018-03-25T05:33:24.649Z,14.10
2018-03-25T05:35:52.817Z,12.80
2018-03-25T05:38:20.949Z,13.95
2018-03-25T05:40:49.878Z,12.65
2018-03-25T05:43:17.994Z,13.55
2018-03-25T05:45:46.224Z,13.23
2018-03-25T05:48:14.362Z,13.82
2018-03-25T05:50:43.283Z,12.52
2018-03-25T05:53:11.456Z,14.20
2018-03-25T05:55:39.543Z,12.40
2018-03-25T05:58:07.800Z,13.88
2018-03-25T06:00:35.905Z,13.30
2018-03-25T06:03:04.120Z,14.45
2018-03-25T06:05:33.023Z,13.43
2018-03-25T06:08:01.205Z,14.00
2018-03-25T06:10:29.317Z,12.50
2018-03-25T06:12:58.956Z,13.57
2018-03-25T06:15:27.935Z,13.60
2018-03-25T06:17:56.147Z,12.80
2018-03-25T06:20:25.937Z,13.95
2018-03-25T06:22:54.085Z,12.40
2018-03-25T06:25:22.233Z,12.80
2018-03-25T06:27:50.342Z,12.77
2018-03-25T06:30:19.236Z,12.07
2018-03-25T06:32:48.253Z,12.15
2018-03-25T06:35:16.370Z,12.85
2018-03-25T06:37:44.495Z,13.87
2018-03-25T06:40:12.669Z,12.37
2018-03-25T06:42:40.774Z,13.60
2018-03-25T06:45:08.900Z,12.82
2018-03-25T06:47:37.185Z,12.48
2018-03-25T06:50:05.303Z,12.48
2018-03-25T06:52:33.444Z,13.00
2018-03-25T06:55:01.598Z,12.35
2018-03-25T06:57:30.534Z,13.40
2018-03-25T06:59:58.734Z,12.35
2018-03-25T07:02:27.629Z,12.30
2018-03-25T07:04:56.602Z,11.88
2018-03-25T07:07:25.642Z,10.50
2018-03-25T07:09:53.737Z,11.65
2018-03-25T07:12:21.860Z,10.60
2018-03-25T07:14:50.135Z,11.07
2018-03-25T07:17:18.323Z,11.80
2018-03-25T07:19:46.438Z,10.98
2018-03-25T07:22:16.064Z,11.20
2018-03-25T07:24:45.182Z,11.05
2018-03-25T07:27:13.369Z,11.27
2018-03-25T07:29:41.468Z,11.20
2018-03-25T07:32:09.602Z,10.65
2018-03-25T07:34:37.739Z,10.70
2018-03-25T07:37:05.869Z,9.33
2018-03-25T07:39:34.023Z,9.98
2018-03-25T07:42:02.213Z,10.40
2018-03-25T07:44:30.338Z,9.45
2018-03-25T07:46:59.270Z,10.50
2018-03-25T07:49:27.434Z,10.93
2018-03-25T07:51:56.324Z,10.00
2018-03-25T07:54:24.482Z,10.45
2018-03-25T07:56:53.362Z,9.35
2018-03-25T07:59:21.539Z,9.93
2018-03-25T08:01:50.513Z,10.23
2018-03-25T08:04:19.436Z,10.07
2018-03-25T08:06:47.534Z,9.63
2018-03-25T08:09:15.823Z,9.13
2018-03-25T08:11:43.906Z,9.13
2018-03-25T08:14:12.826Z,10.07
2018-03-25T08:16:40.960Z,8.40
2018-03-25T08:19:09.121Z,9.60
2018-03-25T08:21:37.362Z,9.98
2018-03-25T08:24:05.515Z,9.73
2018-03-25T08:26:33.654Z,8.43
2018-03-25T08:29:01.875Z,9.02
2018-03-25T08:31:30.045Z,9.35
2018-03-25T08:33:58.218Z,8.27
2018-03-25T08:36:26.395Z,7.40
2018-03-25T08:38:54.559Z,8.95
2018-03-25T08:41:22.693Z,8.98
2018-03-25T08:43:51.623Z,9.18
2018-03-25T08:46:19.795Z,10.05
2018-03-25T08:48:48.787Z,10.23
2018-03-25T08:51:16.931Z,9.47
2018-03-25T08:53:45.840Z,7.93
2018-03-25T08:56:14.021Z,6.90
2018-03-25T08:58:42.187Z,6.72
2018-03-25T09:01:10.367Z,6.60
2018-03-25T09:03:38.536Z,6.50
2018-03-25T09:06:06.824Z,7.00
2018-03-25T09:08:34.985Z,6.70
2018-03-25T09:11:03.123Z,6.05
2018-03-25T09:13:32.060Z,6.05
2018-03-25T09:16:00.228Z,6.35
2018-03-25T09:18:28.322Z,5.90
2018-03-25T09:20:56.553Z,6.80
2018-03-25T09:23:24.703Z,7.82
2018-03-25T09:25:52.812Z,7.03
2018-03-25T09:28:20.961Z,7.43
2018-03-25T09:30:49.104Z,9.23
2018-03-25T09:33:17.321Z,8.82
2018-03-25T09:35:45.465Z,8.63
2018-03-25T09:38:14.397Z,8.50
2018-03-25T09:40:42.514Z,8.68
2018-03-25T09:43:11.520Z,9.95
2018-03-25T09:45:39.821Z,9.52
2018-03-25T09:48:07.999Z,9.98
2018-03-25T09:50:36.153Z,8.75
2018-03-25T09:53:04.355Z,9.60
2018-03-25T09:55:32.480Z,10.38
2018-03-25T09:58:01.398Z,10.15
2018-03-25T10:00:29.585Z,8.88
2018-03-25T10:02:59.445Z,10.90
2018-03-25T10:05:27.594Z,10.10
2018-03-25T10:07:55.758Z,10.10
2018-03-25T10:10:23.908Z,9.73
2018-03-25T10:12:52.001Z,11.23
2018-03-25T10:15:20.222Z,9.15
2018-03-25T10:17:49.339Z,9.93
2018-03-25T10:20:17.514Z,10.00
2018-03-25T10:22:45.723Z,10.10
2018-03-25T10:25:15.705Z,9.63
2018-03-25T10:27:44.673Z,9.82
2018-03-25T10:30:13.581Z,9.48
2018-03-25T10:32:41.754Z,10.63
2018-03-25T10:35:09.951Z,10.20
2018-03-25T10:37:39.104Z,10.40
2018-03-25T10:40:08.010Z,10.73
2018-03-25T10:42:36.194Z,10.63
2018-03-25T10:45:04.339Z,10.38
2018-03-25T10:47:32.477Z,10.45
2018-03-25T10:50:00.703Z,9.23
2018-03-25T10:52:28.882Z,11.25
2018-03-25T10:54:57.049Z,10.73
2018-03-25T10:57:25.226Z,11.95
2018-03-25T10:59:54.609Z,11.50
2018-03-25T11:02:23.615Z,10.83
2018-03-25T11:04:52.626Z,9.80
2018-03-25T11:07:20.883Z,10.75
2018-03-25T11:09:49.019Z,10.48
2018-03-25T11:12:17.233Z,9.68
2018-03-25T11:14:45.518Z,8.77
2018-03-25T11:17:13.667Z,10.10
2018-03-25T11:19:41.808Z,10.35
2018-03-25T11:22:10.934Z,10.25
2018-03-25T11:24:39.139Z,9.60
2018-03-25T11:27:07.385Z,9.35
2018-03-25T11:29:35.561Z,10.85
2018-03-25T11:32:03.814Z,9.10
2018-03-25T11:34:32.010Z,10.00
2018-03-25T11:37:00.198Z,10.02
2018-03-25T11:39:28.372Z,9.90
2018-03-25T11:41:56.529Z,10.75
2018-03-25T11:44:24.804Z,10.30
2018-03-25T11:46:52.948Z,10.37
2018-03-25T11:49:21.948Z,10.77
2018-03-25T11:51:50.106Z,9.82
2018-03-25T11:54:19.041Z,11.07
2018-03-25T11:56:47.172Z,10.00
2018-03-25T11:59:15.380Z,9.82
2018-03-25T12:01:43.551Z,10.15
2018-03-25T12:04:11.689Z,10.17
2018-03-25T12:06:39.901Z,11.15
2018-03-25T12:09:08.022Z,10.30
2018-03-25T12:11:36.182Z,9.43
2018-03-25T12:14:04.720Z,10.33
2018-03-25T12:16:32.886Z,9.90
2018-03-25T12:19:01.862Z,11.33
2018-03-25T12:21:30.061Z,10.60
2018-03-25T12:23:58.202Z,9.77
2018-03-25T12:26:26.367Z,8.97
2018-03-25T12:28:55.391Z,9.90
2018-03-25T12:31:24.289Z,9.60
2018-03-25T12:33:52.451Z,9.60
2018-03-25T12:36:21.547Z,9.60
2018-03-25T12:38:49.693Z,10.13
2018-03-25T12:41:18.717Z,9.90
2018-03-25T12:43:46.844Z,9.77
2018-03-25T12:46:15.747Z,9.33
2018-03-25T12:48:44.772Z,9.90
2018-03-25T12:51:13.249Z,9.87
2018-03-25T12:53:41.367Z,9.33
2018-03-25T12:56:09.595Z,10.20
2018-03-25T12:58:37.719Z,10.07
2018-03-25T13:01:06.772Z,11.30
2018-03-25T13:03:35.172Z,10.80
2018-03-25T13:06:03.397Z,11.33
2018-03-25T13:08:31.587Z,11.33
2018-03-25T13:10:59.712Z,11.53
2018-03-25T13:13:27.887Z,11.67
2018-03-25T13:15:56.814Z,9.50
2018-03-25T13:18:24.967Z,9.43
2018-03-25T13:20:53.864Z,10.17
2018-03-25T13:23:22.043Z,9.67
2018-03-25T13:25:50.223Z,9.00
2018-03-25T13:28:18.368Z,9.57
2018-03-25T13:30:47.302Z,10.00
2018-03-25T13:33:15.464Z,9.80
2018-03-25T13:35:43.627Z,8.90
2018-03-25T13:38:11.787Z,9.93
2018-03-25T13:40:40.083Z,8.70
2018-03-25T13:43:08.195Z,9.17
2018-03-25T13:45:36.329Z,8.83
2018-03-25T13:48:04.470Z,10.47
2018-03-25T13:50:32.613Z,9.30
2018-03-25T13:53:00.773Z,9.80
2018-03-25T13:55:28.956Z,9.93
2018-03-25T13:57:57.094Z,9.23
2018-03-25T14:00:25.226Z,9.17
2018-03-25T14:02:53.368Z,9.50
2018-03-25T14:05:21.521Z,9.03
2018-03-25T14:07:50.471Z,9.13
2018-03-25T14:10:19.374Z,10.40
2018-03-25T14:12:47.539Z,10.00
2018-03-25T14:15:15.670Z,9.20
2018-03-25T14:17:43.839Z,10.00
2018-03-25T14:20:11.979Z,10.33
2018-03-25T14:22:40.167Z,10.33
2018-03-25T14:25:08.297Z,10.90
2018-03-25T14:27:36.482Z,9.67
2018-03-25T14:30:04.758Z,9.37
2018-03-25T14:32:32.817Z,11.30
2018-03-25T14:35:01.751Z,9.77
2018-03-25T14:37:29.889Z,11.10
2018-03-25T14:39:58.040Z,9.87
2018-03-25T14:42:26.238Z,10.53
2018-03-25T14:44:54.510Z,9.87
2018-03-25T14:47:22.682Z,9.97
2018-03-25T14:49:50.798Z,10.10
2018-03-25T14:52:18.970Z,10.67
2018-03-25T14:54:47.193Z,10.23
2018-03-25T14:57:15.312Z,10.10
2018-03-25T14:59:43.509Z,10.77
2018-03-25T15:02:11.749Z,11.40
2018-03-25T15:04:39.895Z,10.70
2018-03-25T15:07:08.024Z,11.30
2018-03-25T15:09:36.953Z,11.13
2018-03-25T15:12:05.118Z,10.70
2018-03-25T15:14:33.274Z,11.63
2018-03-25T15:17:02.180Z,12.40
2018-03-25T15:19:30.364Z,12.10
2018-03-25T15:21:58.528Z,11.80
2018-03-25T15:24:26.679Z,10.83
2018-03-25T15:26:55.595Z,11.47
2018-03-25T15:29:23.708Z,11.50
2018-03-25T15:31:51.865Z,10.30
2018-03-25T15:34:20.021Z,10.63
2018-03-25T15:36:48.157Z,10.10
2018-03-25T15:39:17.180Z,10.67
2018-03-25T15:41:45.311Z,11.37
2018-03-25T15:44:14.184Z,11.90
2018-03-25T15:46:43.114Z,10.97
2018-03-25T15:49:11.317Z,10.17
2018-03-25T15:51:40.258Z,11.50
2018-03-25T15:54:09.150Z,10.80
2018-03-25T15:56:38.115Z,10.43
2018-03-25T15:59:06.240Z,11.13
2018-03-25T16:01:34.378Z,10.50
2018-03-25T16:04:02.517Z,10.97
2018-03-25T16:06:30.755Z,10.63
2018-03-25T16:08:58.880Z,12.70
2018-03-25T16:11:27.795Z,12.70
2018-03-25T16:13:55.986Z,12.40
2018-03-25T16:16:24.123Z,13.97
2018-03-25T16:18:52.268Z,12.83
2018-03-25T16:21:20.476Z,13.57
2018-03-25T16:23:48.605Z,13.20
2018-03-25T16:26:16.779Z,13.33
2018-03-25T16:28:45.031Z,13.07
2018-03-25T16:31:13.197Z,12.70
2018-03-25T16:33:41.313Z,13.60
2018-03-25T16:36:09.513Z,13.68
2018-03-25T16:38:38.452Z,13.17
2018-03-25T16:41:06.603Z,12.27
2018-03-25T16:43:34.897Z,13.20
2018-03-25T16:46:03.029Z,15.20
2018-03-25T16:48:31.361Z,13.33
2018-03-25T16:50:59.591Z,15.33
2018-03-25T16:53:27.770Z,14.63
2018-03-25T16:55:55.928Z,15.80
2018-03-25T16:58:24.132Z,15.30
2018-03-25T17:00:52.304Z,16.20
2018-03-25T17:03:20.481Z,13.93
2018-03-25T17:05:48.651Z,14.60
2018-03-25T17:08:16.818Z,14.10
2018-03-25T17:10:44.983Z,15.23
2018-03-25T17:13:13.176Z,13.47
2018-03-25T17:15:41.329Z,14.30
2018-03-25T17:18:09.502Z,18.23
2018-03-25T17:20:37.675Z,17.60
2018-03-25T17:23:05.839Z,15.93
2018-03-25T17:25:34.017Z,16.70
2018-03-25T17:28:02.195Z,16.40
2018-03-25T17:30:30.355Z,16.05
2018-03-25T17:32:58.519Z,17.48
2018-03-25T17:35:27.426Z,16.13
2018-03-25T17:37:55.607Z,16.52
2018-03-25T17:40:23.808Z,15.50
2018-03-25T17:42:52.030Z,17.02
2018-03-25T17:45:20.212Z,15.88
2018-03-25T17:47:48.396Z,16.20
2018-03-25T17:50:16.573Z,15.65
2018-03-25T17:52:44.743Z,17.15
2018-03-25T17:55:13.003Z,15.05
2018-03-25T17:57:41.186Z,16.02
2018-03-25T18:00:09.365Z,15.77
2018-03-25T18:02:37.624Z,15.80
2018-03-25T18:05:05.808Z,17.62
2018-03-25T18:07:34.743Z,16.85
2018-03-25T18:10:02.910Z,16.08
2018-03-25T18:12:31.892Z,16.65
2018-03-25T18:15:00.020Z,15.15
2018-03-25T18:17:34.105Z,15.05
2018-03-25T18:19:56.471Z,15.07
2018-03-25T18:22:24.641Z,16.67
2018-03-25T18:24:52.829Z,16.20
2018-03-25T18:27:20.991Z,17.33
2018-03-25T18:29:49.176Z,16.15
2018-03-25T18:32:17.336Z,17.20
2018-03-25T18:34:45.524Z,15.95
2018-03-25T18:37:13.679Z,17.43
2018-03-25T18:39:41.850Z,25.37
2018-03-25T18:42:10.014Z,20.83
2018-03-25T18:44:38.240Z,19.83
2018-03-25T18:47:06.577Z,18.17
2018-03-25T18:49:34.746Z,20.98
2018-03-25T18:52:02.880Z,20.17
2018-03-25T18:54:31.052Z,21.05
2018-03-25T18:57:00.082Z,20.77
2018-03-25T18:59:28.270Z,23.70
2018-03-25T19:01:56.437Z,24.40
2018-03-25T19:04:24.593Z,24.45
2018-03-25T19:06:54.187Z,25.57
2018-03-25T19:09:22.445Z,22.45
2018-03-25T19:11:50.691Z,21.92
2018-03-25T19:14:19.167Z,20.33
2018-03-25T19:16:47.331Z,20.48
2018-03-25T19:19:15.608Z,19.10
2018-03-25T19:21:44.581Z,18.50
2018-03-25T19:24:12.741Z,19.87
2018-03-25T19:26:41.843Z,22.70
2018-03-25T19:29:11.311Z,20.23
2018-03-25T19:31:40.987Z,21.15
2018-03-25T19:34:09.385Z,19.83
2018-03-25T19:36:38.419Z,20.07
2018-03-25T19:39:06.541Z,19.98
2018-03-25T19:41:34.753Z,23.75
2018-03-25T19:44:02.894Z,20.85
2018-03-25T19:46:31.039Z,21.40
2018-03-25T19:48:59.353Z,21.17
2018-03-25T19:51:27.545Z,22.27
2018-03-25T19:53:56.502Z,26.35
2018-03-25T19:56:24.647Z,25.25
2018-03-25T19:58:52.896Z,21.87
2018-03-25T20:01:21.069Z,24.02
2018-03-25T20:03:49.280Z,32.47
2018-03-25T20:06:17.483Z,31.33
2018-03-25T20:08:46.505Z,26.58
2018-03-25T20:11:14.782Z,22.30
2018-03-25T20:13:43.084Z,20.52
2018-03-25T20:16:11.231Z,20.48
2018-03-25T20:18:39.403Z,22.40
2018-03-25T20:21:07.788Z,19.60
2018-03-25T20:23:36.360Z,18.30
2018-03-25T20:26:04.807Z,17.37
2018-03-25T20:28:34.611Z,17.55
2018-03-25T20:31:03.621Z,17.25
2018-03-25T20:33:32.737Z,16.62
2018-03-25T20:36:00.931Z,18.27
2018-03-25T20:38:30.332Z,16.92
2018-03-25T20:40:58.602Z,16.60
2018-03-25T20:43:26.757Z,18.33
2018-03-25T20:45:54.910Z,18.48
2018-03-25T20:48:23.177Z,18.40
2018-03-25T20:50:51.427Z,16.27
2018-03-25T20:53:19.656Z,18.08
2018-03-25T20:55:47.812Z,18.02
2018-03-25T20:58:16.000Z,16.50
2018-03-25T21:00:44.173Z,17.40
2018-03-25T21:03:12.447Z,15.95
2018-03-25T21:05:40.628Z,16.60
2018-03-25T21:08:08.821Z,16.85
2018-03-25T21:10:36.956Z,16.52
2018-03-25T21:13:05.863Z,16.20
2018-03-25T21:15:34.009Z,16.00
2018-03-25T21:18:02.178Z,17.25
2018-03-25T21:20:30.364Z,16.67
2018-03-25T21:22:58.539Z,15.65
2018-03-25T21:25:26.659Z,16.48
2018-03-25T21:27:54.885Z,16.33
2018-03-25T21:30:23.054Z,16.75
2018-03-25T21:32:51.203Z,17.00
2018-03-25T21:35:20.111Z,16.37
2018-03-25T21:37:48.252Z,17.45
2018-03-25T21:40:17.280Z,18.25
2018-03-25T21:42:46.273Z,18.48
2018-03-25T21:45:14.436Z,17.65
2018-03-25T21:47:44.112Z,17.87
2018-03-25T21:50:12.289Z,17.58
2018-03-25T21:52:40.498Z,19.10
2018-03-25T21:55:08.670Z,19.10
2018-03-25T21:57:37.574Z,16.35
2018-03-25T22:00:05.726Z,17.17
2018-03-25T22:02:33.903Z,15.75
2018-03-25T22:05:02.792Z,17.20
2018-03-25T22:07:30.920Z,17.58
2018-03-25T22:09:59.101Z,14.63
2018-03-25T22:12:27.222Z,15.65
2018-03-25T22:14:55.355Z,15.63
2018-03-25T22:17:24.306Z,14.85
2018-03-25T22:19:52.523Z,14.77
2018-03-25T22:22:20.673Z,14.82
2018-03-25T22:24:48.815Z,17.62
2018-03-25T22:27:16.961Z,19.65
2018-03-25T22:29:45.131Z,18.65
2018-03-25T22:32:14.083Z,21.85
2018-03-25T22:34:42.169Z,14.80
2018-03-25T22:37:11.389Z,15.17
2018-03-25T22:39:39.564Z,14.32
2018-03-25T22:42:08.435Z,14.80
2018-03-25T22:44:36.633Z,17.75
2018-03-25T22:47:04.766Z,14.75
2018-03-25T22:49:33.686Z,13.57
2018-03-25T22:52:02.573Z,15.05
2018-03-25T22:54:30.712Z,14.65
2018-03-25T22:56:59.639Z,14.23
2018-03-25T22:59:27.766Z,13.68
2018-03-25T23:01:55.974Z,15.40
2018-03-25T23:04:24.151Z,16.58
2018-03-25T23:06:52.309Z,69.20
2018-03-25T23:09:20.508Z,64.20
2018-03-25T23:11:48.655Z,55.30
2018-03-25T23:14:16.803Z,36.00
2018-03-25T23:16:45.677Z,28.25
2018-03-25T23:19:13.829Z,34.88
2018-03-25T23:21:41.979Z,44.77
2018-03-25T23:24:10.116Z,37.63
2018-03-25T23:26:39.139Z,22.35
2018-03-25T23:29:08.133Z,16.20
2018-03-25T23:31:36.303Z,15.13
2018-03-25T23:34:05.213Z,20.37
2018-03-25T23:36:33.444Z,21.37
2018-03-25T23:39:01.641Z,16.02
2018-03-25T23:41:29.763Z,13.18
2018-03-25T23:43:57.906Z,14.10
2018-03-25T23:46:26.055Z,14.25
2018-03-25T23:48:54.945Z,14.15
2018-03-25T23:51:23.117Z,13.50
2018-03-25T23:53:51.270Z,14.63
2018-03-25T23:56:19.393Z,14.87
2018-03-25T23:58:47.652Z,13.30
